sensor_id;sensor_type;location;lat;lon;timestamp;temperature;humidity
19359;DHT22;9815;52.334;20.890;2022-07-23T00:01:02;20.80;99.90
19359;DHT22;9815;52.334;20.890;2022-07-23T00:03:32;20.80;99.90
19359;DHT22;9815;52.334;20.890;2022-07-23T00:06:00;20.80;99.90
19359;DHT22;9815;52.334;20.890;2022-07-23T00:08:29;20.80;99.90
19359;DHT22;9815;52.334;20.890;2022-07-23T00:10:57;20.70;99.90
19359;DHT22;9815;52.334;20.890;2022-07-23T00:13:25;20.70;99.90
19359;DHT22;9815;52.334;20.890;2022-07-23T00:15:53;20.60;99.90
19359;DHT22;9815;52.334;20.890;2022-07-23T00:18:22;20.70;99.90
19359;DHT22;9815;52.334;20.890;2022-07-23T00:20:53;20.60;99.90
19359;DHT22;9815;52.334;20.890;2022-07-23T00:23:22;20.60;99.90
19359;DHT22;9815;52.334;20.890;2022-07-23T00:25:51;20.60;99.90
19359;DHT22;9815;52.334;20.890;2022-07-23T00:28:20;20.50;99.90
19359;DHT22;9815;52.334;20.890;2022-07-23T00:30:48;20.50;99.90
19359;DHT22;9815;52.334;20.890;2022-07-23T00:33:16;20.50;99.90
19359;DHT22;9815;52.334;20.890;2022-07-23T00:35:45;20.50;99.90
19359;DHT22;9815;52.334;20.890;2022-07-23T00:38:14;20.40;99.90
19359;DHT22;9815;52.334;20.890;2022-07-23T00:40:43;20.40;99.90
19359;DHT22;9815;52.334;20.890;2022-07-23T00:43:11;20.30;99.90
19359;DHT22;9815;52.334;20.890;2022-07-23T00:45:39;20.30;99.90
19359;DHT22;9815;52.334;20.890;2022-07-23T00:48:08;20.30;99.90
19359;DHT22;9815;52.334;20.890;2022-07-23T00:50:36;20.20;99.90
19359;DHT22;9815;52.334;20.890;2022-07-23T00:53:05;20.20;99.90
19359;DHT22;9815;52.334;20.890;2022-07-23T00:55:34;20.10;99.90
19359;DHT22;9815;52.334;20.890;2022-07-23T00:58:02;20.10;99.90
19359;DHT22;9815;52.334;20.890;2022-07-23T01:00:31;20.00;99.90
19359;DHT22;9815;52.334;20.890;2022-07-23T01:02:59;19.90;99.90
19359;DHT22;9815;52.334;20.890;2022-07-23T01:05:28;19.70;99.90
19359;DHT22;9815;52.334;20.890;2022-07-23T01:07:56;19.60;99.90
19359;DHT22;9815;52.334;20.890;2022-07-23T01:10:24;19.60;99.90
19359;DHT22;9815;52.334;20.890;2022-07-23T01:13:01;19.60;99.90
19359;DHT22;9815;52.334;20.890;2022-07-23T01:15:29;19.50;99.90
19359;DHT22;9815;52.334;20.890;2022-07-23T01:17:58;19.40;99.90
19359;DHT22;9815;52.334;20.890;2022-07-23T01:20:27;19.40;99.90
19359;DHT22;9815;52.334;20.890;2022-07-23T01:22:57;19.30;99.90
19359;DHT22;9815;52.334;20.890;2022-07-23T01:25:26;19.30;99.90
19359;DHT22;9815;52.334;20.890;2022-07-23T01:27:58;19.30;99.90
19359;DHT22;9815;52.334;20.890;2022-07-23T01:30:27;19.30;99.90
19359;DHT22;9815;52.334;20.890;2022-07-23T01:32:57;19.30;99.90
19359;DHT22;9815;52.334;20.890;2022-07-23T01:35:25;19.30;99.90
19359;DHT22;9815;52.334;20.890;2022-07-23T01:37:59;19.20;99.90
19359;DHT22;9815;52.334;20.890;2022-07-23T01:40:27;19.20;99.90
19359;DHT22;9815;52.334;20.890;2022-07-23T01:42:56;19.20;99.90
19359;DHT22;9815;52.334;20.890;2022-07-23T01:45:27;19.20;99.90
19359;DHT22;9815;52.334;20.890;2022-07-23T01:47:55;19.20;99.90
19359;DHT22;9815;52.334;20.890;2022-07-23T01:50:23;19.20;99.90
19359;DHT22;9815;52.334;20.890;2022-07-23T01:53:08;19.10;99.90
19359;DHT22;9815;52.334;20.890;2022-07-23T01:55:37;19.00;99.90
19359;DHT22;9815;52.334;20.890;2022-07-23T01:58:06;18.90;99.90
19359;DHT22;9815;52.334;20.890;2022-07-23T02:00:35;18.90;99.90
19359;DHT22;9815;52.334;20.890;2022-07-23T02:03:04;18.90;99.90
19359;DHT22;9815;52.334;20.890;2022-07-23T02:05:36;18.90;99.90
19359;DHT22;9815;52.334;20.890;2022-07-23T02:08:04;18.90;99.90
19359;DHT22;9815;52.334;20.890;2022-07-23T02:10:37;19.00;99.90
19359;DHT22;9815;52.334;20.890;2022-07-23T02:13:05;19.00;99.90
19359;DHT22;9815;52.334;20.890;2022-07-23T02:15:34;18.90;99.90
19359;DHT22;9815;52.334;20.890;2022-07-23T02:18:03;18.90;99.90
19359;DHT22;9815;52.334;20.890;2022-07-23T02:20:31;18.90;99.90
19359;DHT22;9815;52.334;20.890;2022-07-23T02:23:00;18.90;99.90
19359;DHT22;9815;52.334;20.890;2022-07-23T02:25:28;18.90;99.90
19359;DHT22;9815;52.334;20.890;2022-07-23T02:28:02;18.90;99.90
19359;DHT22;9815;52.334;20.890;2022-07-23T02:30:30;18.80;99.90
19359;DHT22;9815;52.334;20.890;2022-07-23T02:32:59;18.80;99.90
19359;DHT22;9815;52.334;20.890;2022-07-23T02:35:28;18.80;99.90
19359;DHT22;9815;52.334;20.890;2022-07-23T02:37:59;18.80;99.90
19359;DHT22;9815;52.334;20.890;2022-07-23T02:40:29;18.70;99.90
19359;DHT22;9815;52.334;20.890;2022-07-23T02:42:57;18.70;99.90
19359;DHT22;9815;52.334;20.890;2022-07-23T02:45:27;18.60;99.90
19359;DHT22;9815;52.334;20.890;2022-07-23T02:47:55;18.60;99.90
19359;DHT22;9815;52.334;20.890;2022-07-23T02:50:24;18.50;99.90
19359;DHT22;9815;52.334;20.890;2022-07-23T02:52:55;18.50;99.90
19359;DHT22;9815;52.334;20.890;2022-07-23T02:55:24;18.50;99.90
19359;DHT22;9815;52.334;20.890;2022-07-23T02:57:53;18.50;99.90
19359;DHT22;9815;52.334;20.890;2022-07-23T03:00:23;18.40;99.90
19359;DHT22;9815;52.334;20.890;2022-07-23T03:02:53;18.50;99.90
19359;DHT22;9815;52.334;20.890;2022-07-23T03:05:21;18.50;99.90
19359;DHT22;9815;52.334;20.890;2022-07-23T03:07:49;18.60;99.90
19359;DHT22;9815;52.334;20.890;2022-07-23T03:10:19;18.60;99.90
19359;DHT22;9815;52.334;20.890;2022-07-23T03:12:48;18.60;99.90
19359;DHT22;9815;52.334;20.890;2022-07-23T03:15:17;18.60;99.90
19359;DHT22;9815;52.334;20.890;2022-07-23T03:17:45;18.60;99.90
19359;DHT22;9815;52.334;20.890;2022-07-23T03:20:15;18.50;99.90
19359;DHT22;9815;52.334;20.890;2022-07-23T03:22:43;18.50;99.90
19359;DHT22;9815;52.334;20.890;2022-07-23T03:25:11;18.50;99.90
19359;DHT22;9815;52.334;20.890;2022-07-23T03:27:39;18.40;99.90
19359;DHT22;9815;52.334;20.890;2022-07-23T03:30:09;18.40;99.90
19359;DHT22;9815;52.334;20.890;2022-07-23T03:32:38;18.40;99.90
19359;DHT22;9815;52.334;20.890;2022-07-23T03:35:07;18.50;99.90
19359;DHT22;9815;52.334;20.890;2022-07-23T03:37:43;18.40;99.90
19359;DHT22;9815;52.334;20.890;2022-07-23T03:40:13;18.40;99.90
19359;DHT22;9815;52.334;20.890;2022-07-23T03:42:41;18.50;99.90
19359;DHT22;9815;52.334;20.890;2022-07-23T03:45:10;18.50;99.90
19359;DHT22;9815;52.334;20.890;2022-07-23T03:47:38;18.50;99.90
19359;DHT22;9815;52.334;20.890;2022-07-23T03:50:07;18.60;99.90
19359;DHT22;9815;52.334;20.890;2022-07-23T03:52:36;18.60;99.90
19359;DHT22;9815;52.334;20.890;2022-07-23T03:55:07;18.60;99.90
19359;DHT22;9815;52.334;20.890;2022-07-23T03:57:36;18.70;99.90
19359;DHT22;9815;52.334;20.890;2022-07-23T04:00:06;18.70;99.90
19359;DHT22;9815;52.334;20.890;2022-07-23T04:02:43;18.80;99.90
19359;DHT22;9815;52.334;20.890;2022-07-23T04:05:12;18.80;99.90
19359;DHT22;9815;52.334;20.890;2022-07-23T04:07:43;18.80;99.90
19359;DHT22;9815;52.334;20.890;2022-07-23T04:10:12;18.90;99.90
19359;DHT22;9815;52.334;20.890;2022-07-23T04:12:41;18.90;99.90
19359;DHT22;9815;52.334;20.890;2022-07-23T04:15:09;19.00;99.90
19359;DHT22;9815;52.334;20.890;2022-07-23T04:17:38;19.00;99.90
19359;DHT22;9815;52.334;20.890;2022-07-23T04:20:07;19.10;99.90
19359;DHT22;9815;52.334;20.890;2022-07-23T04:22:43;19.20;99.90
19359;DHT22;9815;52.334;20.890;2022-07-23T04:25:13;19.20;99.90
19359;DHT22;9815;52.334;20.890;2022-07-23T04:27:44;19.30;99.90
19359;DHT22;9815;52.334;20.890;2022-07-23T04:30:12;19.40;99.90
19359;DHT22;9815;52.334;20.890;2022-07-23T04:32:40;19.50;99.90
19359;DHT22;9815;52.334;20.890;2022-07-23T04:35:17;19.60;99.90
19359;DHT22;9815;52.334;20.890;2022-07-23T04:37:46;19.70;99.90
19359;DHT22;9815;52.334;20.890;2022-07-23T04:40:18;19.70;99.90
19359;DHT22;9815;52.334;20.890;2022-07-23T04:42:48;19.80;99.90
19359;DHT22;9815;52.334;20.890;2022-07-23T04:45:17;19.90;99.90
19359;DHT22;9815;52.334;20.890;2022-07-23T04:47:47;20.00;99.90
19359;DHT22;9815;52.334;20.890;2022-07-23T04:50:16;20.10;99.90
19359;DHT22;9815;52.334;20.890;2022-07-23T04:52:50;20.10;99.90
19359;DHT22;9815;52.334;20.890;2022-07-23T04:55:19;20.10;99.90
19359;DHT22;9815;52.334;20.890;2022-07-23T04:57:48;20.40;99.90
19359;DHT22;9815;52.334;20.890;2022-07-23T05:00:16;20.40;99.90
19359;DHT22;9815;52.334;20.890;2022-07-23T05:02:45;20.60;99.90
19359;DHT22;9815;52.334;20.890;2022-07-23T05:05:13;20.70;99.90
19359;DHT22;9815;52.334;20.890;2022-07-23T05:07:44;20.80;99.90
19359;DHT22;9815;52.334;20.890;2022-07-23T05:10:12;20.90;99.90
19359;DHT22;9815;52.334;20.890;2022-07-23T05:12:42;21.00;99.90
19359;DHT22;9815;52.334;20.890;2022-07-23T05:15:10;21.00;99.90
19359;DHT22;9815;52.334;20.890;2022-07-23T05:17:38;21.10;99.90
19359;DHT22;9815;52.334;20.890;2022-07-23T05:20:12;21.20;99.90
19359;DHT22;9815;52.334;20.890;2022-07-23T05:22:41;21.30;99.90
19359;DHT22;9815;52.334;20.890;2022-07-23T05:25:09;21.40;99.90
19359;DHT22;9815;52.334;20.890;2022-07-23T05:27:38;21.40;99.90
19359;DHT22;9815;52.334;20.890;2022-07-23T05:30:08;21.50;99.90
19359;DHT22;9815;52.334;20.890;2022-07-23T05:32:39;21.50;99.90
19359;DHT22;9815;52.334;20.890;2022-07-23T05:35:14;21.60;99.90
19359;DHT22;9815;52.334;20.890;2022-07-23T05:37:50;21.70;99.90
19359;DHT22;9815;52.334;20.890;2022-07-23T05:40:20;21.70;99.90
19359;DHT22;9815;52.334;20.890;2022-07-23T05:42:48;21.80;99.90
19359;DHT22;9815;52.334;20.890;2022-07-23T05:45:17;21.90;99.90
19359;DHT22;9815;52.334;20.890;2022-07-23T05:47:47;21.90;99.90
19359;DHT22;9815;52.334;20.890;2022-07-23T05:50:25;22.00;99.90
19359;DHT22;9815;52.334;20.890;2022-07-23T05:53:00;22.10;99.90
19359;DHT22;9815;52.334;20.890;2022-07-23T05:55:47;22.30;99.90
19359;DHT22;9815;52.334;20.890;2022-07-23T05:58:15;22.30;99.90
19359;DHT22;9815;52.334;20.890;2022-07-23T06:00:45;22.50;99.90
19359;DHT22;9815;52.334;20.890;2022-07-23T06:03:13;22.50;99.90
19359;DHT22;9815;52.334;20.890;2022-07-23T06:05:42;22.60;99.50
19359;DHT22;9815;52.334;20.890;2022-07-23T06:08:10;22.70;99.80
19359;DHT22;9815;52.334;20.890;2022-07-23T06:10:39;22.80;98.70
19359;DHT22;9815;52.334;20.890;2022-07-23T06:13:07;23.00;98.00
19359;DHT22;9815;52.334;20.890;2022-07-23T06:15:36;23.00;96.90
19359;DHT22;9815;52.334;20.890;2022-07-23T06:18:05;23.20;97.20
19359;DHT22;9815;52.334;20.890;2022-07-23T06:20:33;23.30;96.60
19359;DHT22;9815;52.334;20.890;2022-07-23T06:23:02;23.50;96.30
19359;DHT22;9815;52.334;20.890;2022-07-23T06:25:30;23.60;96.10
19359;DHT22;9815;52.334;20.890;2022-07-23T06:27:58;23.70;98.10
19359;DHT22;9815;52.334;20.890;2022-07-23T06:30:26;23.80;96.00
19359;DHT22;9815;52.334;20.890;2022-07-23T06:32:55;23.90;95.70
19359;DHT22;9815;52.334;20.890;2022-07-23T06:35:24;24.00;95.50
19359;DHT22;9815;52.334;20.890;2022-07-23T06:37:52;24.20;94.80
19359;DHT22;9815;52.334;20.890;2022-07-23T06:40:21;24.20;93.80
19359;DHT22;9815;52.334;20.890;2022-07-23T06:42:50;24.30;94.20
19359;DHT22;9815;52.334;20.890;2022-07-23T06:45:22;24.50;93.40
19359;DHT22;9815;52.334;20.890;2022-07-23T06:47:50;24.60;93.30
19359;DHT22;9815;52.334;20.890;2022-07-23T06:50:19;24.70;94.60
19359;DHT22;9815;52.334;20.890;2022-07-23T06:52:50;24.70;91.50
19359;DHT22;9815;52.334;20.890;2022-07-23T06:55:18;24.80;92.40
19359;DHT22;9815;52.334;20.890;2022-07-23T06:57:46;24.90;93.00
19359;DHT22;9815;52.334;20.890;2022-07-23T07:00:15;25.00;92.00
19359;DHT22;9815;52.334;20.890;2022-07-23T07:02:43;25.10;89.20
19359;DHT22;9815;52.334;20.890;2022-07-23T07:05:12;25.10;80.50
19359;DHT22;9815;52.334;20.890;2022-07-23T07:07:40;25.20;80.00
19359;DHT22;9815;52.334;20.890;2022-07-23T07:10:10;25.20;77.60
19359;DHT22;9815;52.334;20.890;2022-07-23T07:12:42;25.30;80.70
19359;DHT22;9815;52.334;20.890;2022-07-23T07:15:10;25.40;75.70
19359;DHT22;9815;52.334;20.890;2022-07-23T07:17:38;25.50;75.70
19359;DHT22;9815;52.334;20.890;2022-07-23T07:20:08;25.60;70.50
19359;DHT22;9815;52.334;20.890;2022-07-23T07:22:36;25.70;69.60
19359;DHT22;9815;52.334;20.890;2022-07-23T07:25:05;25.80;68.60
19359;DHT22;9815;52.334;20.890;2022-07-23T07:27:35;25.90;69.20
19359;DHT22;9815;52.334;20.890;2022-07-23T07:30:05;25.90;68.70
19359;DHT22;9815;52.334;20.890;2022-07-23T07:32:33;26.00;68.10
19359;DHT22;9815;52.334;20.890;2022-07-23T07:35:23;26.20;67.90
19359;DHT22;9815;52.334;20.890;2022-07-23T07:37:52;26.20;70.70
19359;DHT22;9815;52.334;20.890;2022-07-23T07:40:20;26.10;67.30
19359;DHT22;9815;52.334;20.890;2022-07-23T07:42:53;26.10;69.20
19359;DHT22;9815;52.334;20.890;2022-07-23T07:45:24;26.20;67.60
19359;DHT22;9815;52.334;20.890;2022-07-23T07:47:52;26.50;62.90
19359;DHT22;9815;52.334;20.890;2022-07-23T07:50:21;26.70;64.30
19359;DHT22;9815;52.334;20.890;2022-07-23T07:52:49;27.20;65.40
19359;DHT22;9815;52.334;20.890;2022-07-23T07:55:18;27.80;57.10
19359;DHT22;9815;52.334;20.890;2022-07-23T07:57:46;28.40;53.50
19359;DHT22;9815;52.334;20.890;2022-07-23T08:00:17;28.70;52.80
19359;DHT22;9815;52.334;20.890;2022-07-23T08:02:46;29.20;49.40
19359;DHT22;9815;52.334;20.890;2022-07-23T08:05:19;29.60;48.70
19359;DHT22;9815;52.334;20.890;2022-07-23T08:07:54;30.00;47.60
19359;DHT22;9815;52.334;20.890;2022-07-23T08:10:23;30.10;47.70
19359;DHT22;9815;52.334;20.890;2022-07-23T08:12:52;30.30;47.40
19359;DHT22;9815;52.334;20.890;2022-07-23T08:15:24;30.30;46.70
19359;DHT22;9815;52.334;20.890;2022-07-23T08:17:53;30.30;46.30
19359;DHT22;9815;52.334;20.890;2022-07-23T08:20:22;30.40;46.60
19359;DHT22;9815;52.334;20.890;2022-07-23T08:22:53;30.60;45.80
19359;DHT22;9815;52.334;20.890;2022-07-23T08:25:23;30.50;45.50
19359;DHT22;9815;52.334;20.890;2022-07-23T08:27:52;30.40;45.70
19359;DHT22;9815;52.334;20.890;2022-07-23T08:30:20;30.50;45.50
19359;DHT22;9815;52.334;20.890;2022-07-23T08:32:53;30.10;46.80
19359;DHT22;9815;52.334;20.890;2022-07-23T08:35:23;29.80;47.20
19359;DHT22;9815;52.334;20.890;2022-07-23T08:37:51;29.60;47.60
19359;DHT22;9815;52.334;20.890;2022-07-23T08:40:20;29.80;47.40
19359;DHT22;9815;52.334;20.890;2022-07-23T08:42:49;30.10;46.20
19359;DHT22;9815;52.334;20.890;2022-07-23T08:45:19;30.10;46.20
19359;DHT22;9815;52.334;20.890;2022-07-23T08:47:52;30.40;46.70
19359;DHT22;9815;52.334;20.890;2022-07-23T08:50:21;30.40;47.40
19359;DHT22;9815;52.334;20.890;2022-07-23T08:52:50;30.70;46.70
19359;DHT22;9815;52.334;20.890;2022-07-23T08:55:21;30.90;46.40
19359;DHT22;9815;52.334;20.890;2022-07-23T08:57:51;30.90;45.20
19359;DHT22;9815;52.334;20.890;2022-07-23T09:00:21;31.10;43.60
19359;DHT22;9815;52.334;20.890;2022-07-23T09:02:51;31.30;43.80
19359;DHT22;9815;52.334;20.890;2022-07-23T09:05:20;31.30;43.40
19359;DHT22;9815;52.334;20.890;2022-07-23T09:08:09;31.30;43.30
19359;DHT22;9815;52.334;20.890;2022-07-23T09:10:46;31.50;42.80
19359;DHT22;9815;52.334;20.890;2022-07-23T09:13:33;31.90;41.30
19359;DHT22;9815;52.334;20.890;2022-07-23T09:16:03;32.10;40.20
19359;DHT22;9815;52.334;20.890;2022-07-23T09:18:35;32.30;40.60
19359;DHT22;9815;52.334;20.890;2022-07-23T09:21:08;32.60;40.10
19359;DHT22;9815;52.334;20.890;2022-07-23T09:23:41;32.70;39.10
19359;DHT22;9815;52.334;20.890;2022-07-23T09:26:24;32.80;38.40
19359;DHT22;9815;52.334;20.890;2022-07-23T09:28:55;33.00;37.90
19359;DHT22;9815;52.334;20.890;2022-07-23T09:31:25;33.20;37.60
19359;DHT22;9815;52.334;20.890;2022-07-23T09:34:08;33.30;36.70
19359;DHT22;9815;52.334;20.890;2022-07-23T09:36:37;33.00;37.90
19359;DHT22;9815;52.334;20.890;2022-07-23T09:39:06;33.20;37.40
19359;DHT22;9815;52.334;20.890;2022-07-23T09:41:40;32.80;38.60
19359;DHT22;9815;52.334;20.890;2022-07-23T09:44:11;33.20;37.70
19359;DHT22;9815;52.334;20.890;2022-07-23T09:46:40;33.40;37.70
19359;DHT22;9815;52.334;20.890;2022-07-23T09:49:15;33.60;38.10
19359;DHT22;9815;52.334;20.890;2022-07-23T09:51:46;33.50;38.70
19359;DHT22;9815;52.334;20.890;2022-07-23T09:54:27;33.50;38.40
19359;DHT22;9815;52.334;20.890;2022-07-23T09:56:58;33.20;39.20
19359;DHT22;9815;52.334;20.890;2022-07-23T09:59:29;33.70;37.70
19359;DHT22;9815;52.334;20.890;2022-07-23T10:01:58;33.60;38.50
19359;DHT22;9815;52.334;20.890;2022-07-23T10:04:33;33.60;36.80
19359;DHT22;9815;52.334;20.890;2022-07-23T10:07:10;33.70;37.40
19359;DHT22;9815;52.334;20.890;2022-07-23T10:09:58;33.90;37.10
19359;DHT22;9815;52.334;20.890;2022-07-23T10:12:46;32.70;37.80
19359;DHT22;9815;52.334;20.890;2022-07-23T10:15:32;33.00;37.50
19359;DHT22;9815;52.334;20.890;2022-07-23T10:18:00;32.90;38.60
19359;DHT22;9815;52.334;20.890;2022-07-23T10:20:30;32.70;40.70
19359;DHT22;9815;52.334;20.890;2022-07-23T10:23:02;33.20;39.10
19359;DHT22;9815;52.334;20.890;2022-07-23T10:25:36;32.50;39.00
19359;DHT22;9815;52.334;20.890;2022-07-23T10:28:37;32.50;37.30
19359;DHT22;9815;52.334;20.890;2022-07-23T10:31:19;32.90;38.10
19359;DHT22;9815;52.334;20.890;2022-07-23T10:34:16;33.30;36.80
19359;DHT22;9815;52.334;20.890;2022-07-23T10:36:52;33.70;36.70
19359;DHT22;9815;52.334;20.890;2022-07-23T10:39:24;33.80;35.50
19359;DHT22;9815;52.334;20.890;2022-07-23T10:42:08;34.10;35.40
19359;DHT22;9815;52.334;20.890;2022-07-23T10:44:41;33.70;36.20
19359;DHT22;9815;52.334;20.890;2022-07-23T10:47:11;33.50;37.00
19359;DHT22;9815;52.334;20.890;2022-07-23T10:49:51;33.60;37.00
19359;DHT22;9815;52.334;20.890;2022-07-23T10:52:24;34.00;34.50
19359;DHT22;9815;52.334;20.890;2022-07-23T10:54:55;34.30;35.30
19359;DHT22;9815;52.334;20.890;2022-07-23T10:57:26;34.30;34.80
19359;DHT22;9815;52.334;20.890;2022-07-23T11:00:16;34.50;34.30
19359;DHT22;9815;52.334;20.890;2022-07-23T11:02:48;34.60;35.30
19359;DHT22;9815;52.334;20.890;2022-07-23T11:05:19;34.80;34.90
19359;DHT22;9815;52.334;20.890;2022-07-23T11:08:13;34.70;33.80
19359;DHT22;9815;52.334;20.890;2022-07-23T11:10:47;35.00;34.80
19359;DHT22;9815;52.334;20.890;2022-07-23T11:13:39;35.20;33.80
19359;DHT22;9815;52.334;20.890;2022-07-23T11:16:21;34.50;33.20
19359;DHT22;9815;52.334;20.890;2022-07-23T11:21:48;33.40;36.20
19359;DHT22;9815;52.334;20.890;2022-07-23T11:24:19;34.00;36.50
19359;DHT22;9815;52.334;20.890;2022-07-23T11:26:54;34.30;36.20
19359;DHT22;9815;52.334;20.890;2022-07-23T11:29:39;34.30;36.20
19359;DHT22;9815;52.334;20.890;2022-07-23T11:32:37;33.90;35.90
19359;DHT22;9815;52.334;20.890;2022-07-23T11:35:26;34.70;35.70
19359;DHT22;9815;52.334;20.890;2022-07-23T11:38:04;35.00;33.20
19359;DHT22;9815;52.334;20.890;2022-07-23T11:40:34;34.30;33.70
19359;DHT22;9815;52.334;20.890;2022-07-23T11:43:04;33.70;35.30
19359;DHT22;9815;52.334;20.890;2022-07-23T11:45:34;33.60;35.10
19359;DHT22;9815;52.334;20.890;2022-07-23T11:48:04;32.80;37.10
19359;DHT22;9815;52.334;20.890;2022-07-23T11:50:34;32.40;37.40
19359;DHT22;9815;52.334;20.890;2022-07-23T11:53:02;32.60;36.30
19359;DHT22;9815;52.334;20.890;2022-07-23T11:55:30;33.20;36.40
19359;DHT22;9815;52.334;20.890;2022-07-23T11:58:00;33.80;35.70
19359;DHT22;9815;52.334;20.890;2022-07-23T12:00:30;34.40;34.30
19359;DHT22;9815;52.334;20.890;2022-07-23T12:03:06;34.90;34.40
19359;DHT22;9815;52.334;20.890;2022-07-23T12:05:36;35.00;34.70
19359;DHT22;9815;52.334;20.890;2022-07-23T12:08:06;34.10;35.50
19359;DHT22;9815;52.334;20.890;2022-07-23T12:10:36;33.60;35.70
19359;DHT22;9815;52.334;20.890;2022-07-23T12:13:08;34.10;36.00
19359;DHT22;9815;52.334;20.890;2022-07-23T12:15:39;34.50;34.40
19359;DHT22;9815;52.334;20.890;2022-07-23T12:18:10;34.60;34.20
19359;DHT22;9815;52.334;20.890;2022-07-23T12:20:40;34.20;34.60
19359;DHT22;9815;52.334;20.890;2022-07-23T12:23:10;34.40;34.70
19359;DHT22;9815;52.334;20.890;2022-07-23T12:25:40;34.80;33.60
19359;DHT22;9815;52.334;20.890;2022-07-23T12:28:11;35.00;33.00
19359;DHT22;9815;52.334;20.890;2022-07-23T12:30:41;34.90;32.90
19359;DHT22;9815;52.334;20.890;2022-07-23T12:33:11;34.70;34.20
19359;DHT22;9815;52.334;20.890;2022-07-23T12:35:44;34.40;33.70
19359;DHT22;9815;52.334;20.890;2022-07-23T12:38:14;34.00;35.10
19359;DHT22;9815;52.334;20.890;2022-07-23T12:40:44;33.70;37.20
19359;DHT22;9815;52.334;20.890;2022-07-23T12:43:21;33.40;36.40
19359;DHT22;9815;52.334;20.890;2022-07-23T12:45:51;33.50;35.80
19359;DHT22;9815;52.334;20.890;2022-07-23T12:48:22;33.80;35.30
19359;DHT22;9815;52.334;20.890;2022-07-23T12:50:59;34.20;35.00
19359;DHT22;9815;52.334;20.890;2022-07-23T12:53:29;34.40;34.20
19359;DHT22;9815;52.334;20.890;2022-07-23T12:56:03;34.40;33.50
19359;DHT22;9815;52.334;20.890;2022-07-23T12:58:48;34.30;33.70
19359;DHT22;9815;52.334;20.890;2022-07-23T13:01:26;34.20;34.60
19359;DHT22;9815;52.334;20.890;2022-07-23T13:03:58;33.30;34.30
19359;DHT22;9815;52.334;20.890;2022-07-23T13:06:28;33.50;35.70
19359;DHT22;9815;52.334;20.890;2022-07-23T13:08:57;33.90;35.20
19359;DHT22;9815;52.334;20.890;2022-07-23T13:11:27;34.30;33.00
19359;DHT22;9815;52.334;20.890;2022-07-23T13:13:58;34.40;33.70
19359;DHT22;9815;52.334;20.890;2022-07-23T13:16:28;34.10;32.80
19359;DHT22;9815;52.334;20.890;2022-07-23T13:18:57;33.80;33.30
19359;DHT22;9815;52.334;20.890;2022-07-23T13:21:27;33.10;34.70
19359;DHT22;9815;52.334;20.890;2022-07-23T13:23:55;33.10;35.80
19359;DHT22;9815;52.334;20.890;2022-07-23T13:26:23;33.00;36.40
19359;DHT22;9815;52.334;20.890;2022-07-23T13:28:52;32.90;37.00
19359;DHT22;9815;52.334;20.890;2022-07-23T13:31:22;33.00;35.90
19359;DHT22;9815;52.334;20.890;2022-07-23T13:33:50;32.90;36.80
19359;DHT22;9815;52.334;20.890;2022-07-23T13:36:18;32.60;36.60
19359;DHT22;9815;52.334;20.890;2022-07-23T13:38:47;32.50;36.80
19359;DHT22;9815;52.334;20.890;2022-07-23T13:41:16;32.50;37.60
19359;DHT22;9815;52.334;20.890;2022-07-23T13:43:45;32.60;36.30
19359;DHT22;9815;52.334;20.890;2022-07-23T13:46:13;32.60;36.50
19359;DHT22;9815;52.334;20.890;2022-07-23T13:48:43;32.60;36.60
19359;DHT22;9815;52.334;20.890;2022-07-23T13:51:13;32.60;35.80
19359;DHT22;9815;52.334;20.890;2022-07-23T13:53:42;32.60;36.70
19359;DHT22;9815;52.334;20.890;2022-07-23T13:56:11;32.10;36.90
19359;DHT22;9815;52.334;20.890;2022-07-23T13:58:40;31.70;38.10
19359;DHT22;9815;52.334;20.890;2022-07-23T14:01:08;31.20;37.90
19359;DHT22;9815;52.334;20.890;2022-07-23T14:03:37;31.00;40.10
19359;DHT22;9815;52.334;20.890;2022-07-23T14:06:07;30.70;39.50
19359;DHT22;9815;52.334;20.890;2022-07-23T14:08:42;30.50;40.80
19359;DHT22;9815;52.334;20.890;2022-07-23T14:11:11;30.40;42.00
19359;DHT22;9815;52.334;20.890;2022-07-23T14:13:40;30.20;41.20
19359;DHT22;9815;52.334;20.890;2022-07-23T14:16:08;30.10;42.50
19359;DHT22;9815;52.334;20.890;2022-07-23T14:18:36;29.80;42.10
19359;DHT22;9815;52.334;20.890;2022-07-23T14:21:05;29.70;42.00
19359;DHT22;9815;52.334;20.890;2022-07-23T14:23:34;29.60;43.20
19359;DHT22;9815;52.334;20.890;2022-07-23T14:26:06;29.50;42.30
19359;DHT22;9815;52.334;20.890;2022-07-23T14:28:35;29.40;43.30
19359;DHT22;9815;52.334;20.890;2022-07-23T14:31:06;29.40;43.00
19359;DHT22;9815;52.334;20.890;2022-07-23T14:33:47;29.50;42.20
19359;DHT22;9815;52.334;20.890;2022-07-23T14:36:16;29.40;42.60
19359;DHT22;9815;52.334;20.890;2022-07-23T14:38:46;29.20;44.40
19359;DHT22;9815;52.334;20.890;2022-07-23T14:41:14;28.60;50.70
19359;DHT22;9815;52.334;20.890;2022-07-23T14:43:42;27.50;59.90
19359;DHT22;9815;52.334;20.890;2022-07-23T14:46:12;26.10;71.80
19359;DHT22;9815;52.334;20.890;2022-07-23T14:48:40;25.50;81.70
19359;DHT22;9815;52.334;20.890;2022-07-23T14:51:09;24.70;96.10
19359;DHT22;9815;52.334;20.890;2022-07-23T14:53:38;23.30;99.90
19359;DHT22;9815;52.334;20.890;2022-07-23T14:56:07;22.00;99.90
19359;DHT22;9815;52.334;20.890;2022-07-23T14:58:36;21.10;99.90
19359;DHT22;9815;52.334;20.890;2022-07-23T15:01:04;20.50;99.90
19359;DHT22;9815;52.334;20.890;2022-07-23T15:03:32;20.20;99.90
19359;DHT22;9815;52.334;20.890;2022-07-23T15:06:08;20.10;99.90
19359;DHT22;9815;52.334;20.890;2022-07-23T15:08:38;20.00;99.90
19359;DHT22;9815;52.334;20.890;2022-07-23T15:11:08;19.90;99.90
19359;DHT22;9815;52.334;20.890;2022-07-23T15:13:37;19.80;99.90
19359;DHT22;9815;52.334;20.890;2022-07-23T15:16:07;19.80;99.90
19359;DHT22;9815;52.334;20.890;2022-07-23T15:18:36;19.80;99.90
19359;DHT22;9815;52.334;20.890;2022-07-23T15:21:05;19.80;99.90
19359;DHT22;9815;52.334;20.890;2022-07-23T15:23:34;19.80;99.90
19359;DHT22;9815;52.334;20.890;2022-07-23T15:26:05;19.80;99.90
19359;DHT22;9815;52.334;20.890;2022-07-23T15:28:35;19.80;99.90
19359;DHT22;9815;52.334;20.890;2022-07-23T15:31:04;19.80;99.90
19359;DHT22;9815;52.334;20.890;2022-07-23T15:33:35;19.80;99.90
19359;DHT22;9815;52.334;20.890;2022-07-23T15:36:04;19.90;99.90
19359;DHT22;9815;52.334;20.890;2022-07-23T15:38:33;19.90;99.90
19359;DHT22;9815;52.334;20.890;2022-07-23T15:41:02;19.80;99.90
19359;DHT22;9815;52.334;20.890;2022-07-23T15:43:31;19.90;99.90
19359;DHT22;9815;52.334;20.890;2022-07-23T15:46:00;19.90;99.90
19359;DHT22;9815;52.334;20.890;2022-07-23T15:48:35;19.90;99.90
19359;DHT22;9815;52.334;20.890;2022-07-23T15:51:04;19.80;99.90
19359;DHT22;9815;52.334;20.890;2022-07-23T15:53:34;19.90;99.90
19359;DHT22;9815;52.334;20.890;2022-07-23T15:56:05;19.90;99.90